sensor_id;sensor_type;location;lat;lon;timestamp;P1;durP1;ratioP1;P2;durP2;ratioP2
50379;SDS011;37474;59.468;18.040;2023-03-24T00:01:35;13.37;;;3.13;;
50379;SDS011;37474;59.468;18.040;2023-03-24T00:04:05;16.20;;;1.97;;
50379;SDS011;37474;59.468;18.040;2023-03-24T00:06:32;14.38;;;1.95;;
50379;SDS011;37474;59.468;18.040;2023-03-24T00:09:02;9.67;;;1.67;;
50379;SDS011;37474;59.468;18.040;2023-03-24T00:11:32;12.73;;;1.83;;
50379;SDS011;37474;59.468;18.040;2023-03-24T00:14:00;11.30;;;1.83;;
50379;SDS011;37474;59.468;18.040;2023-03-24T00:16:32;11.77;;;1.70;;
50379;SDS011;37474;59.468;18.040;2023-03-24T00:19:03;11.27;;;2.00;;
50379;SDS011;37474;59.468;18.040;2023-03-24T00:21:33;12.37;;;2.07;;
50379;SDS011;37474;59.468;18.040;2023-03-24T00:24:04;17.53;;;2.33;;
50379;SDS011;37474;59.468;18.040;2023-03-24T00:26:34;16.80;;;2.13;;
50379;SDS011;37474;59.468;18.040;2023-03-24T00:29:06;14.63;;;2.20;;
50379;SDS011;37474;59.468;18.040;2023-03-24T00:31:38;14.67;;;2.30;;
50379;SDS011;37474;59.468;18.040;2023-03-24T00:34:08;18.83;;;2.40;;
50379;SDS011;37474;59.468;18.040;2023-03-24T00:36:38;11.80;;;2.03;;
50379;SDS011;37474;59.468;18.040;2023-03-24T00:39:08;11.47;;;1.53;;
50379;SDS011;37474;59.468;18.040;2023-03-24T00:41:36;14.17;;;2.17;;
50379;SDS011;37474;59.468;18.040;2023-03-24T00:44:06;17.93;;;2.33;;
50379;SDS011;37474;59.468;18.040;2023-03-24T00:46:46;18.80;;;3.00;;
50379;SDS011;37474;59.468;18.040;2023-03-24T00:49:23;13.47;;;1.90;;
50379;SDS011;37474;59.468;18.040;2023-03-24T00:52:14;12.03;;;1.70;;
50379;SDS011;37474;59.468;18.040;2023-03-24T00:54:46;11.47;;;1.77;;
50379;SDS011;37474;59.468;18.040;2023-03-24T00:57:18;8.97;;;1.83;;
50379;SDS011;37474;59.468;18.040;2023-03-24T00:59:47;16.60;;;2.27;;
50379;SDS011;37474;59.468;18.040;2023-03-24T01:02:17;14.03;;;2.30;;
50379;SDS011;37474;59.468;18.040;2023-03-24T01:04:51;13.20;;;2.20;;
50379;SDS011;37474;59.468;18.040;2023-03-24T01:07:21;11.85;;;1.73;;
50379;SDS011;37474;59.468;18.040;2023-03-24T01:09:53;15.70;;;1.87;;
50379;SDS011;37474;59.468;18.040;2023-03-24T01:12:25;15.02;;;2.17;;
50379;SDS011;37474;59.468;18.040;2023-03-24T01:14:57;19.00;;;2.40;;
50379;SDS011;37474;59.468;18.040;2023-03-24T01:17:27;12.80;;;2.20;;
50379;SDS011;37474;59.468;18.040;2023-03-24T01:19:57;16.37;;;2.20;;
50379;SDS011;37474;59.468;18.040;2023-03-24T01:22:29;14.27;;;2.15;;
50379;SDS011;37474;59.468;18.040;2023-03-24T01:25:02;23.30;;;2.60;;
50379;SDS011;37474;59.468;18.040;2023-03-24T01:27:35;19.33;;;2.55;;
50379;SDS011;37474;59.468;18.040;2023-03-24T01:30:04;15.77;;;2.03;;
50379;SDS011;37474;59.468;18.040;2023-03-24T01:32:34;12.35;;;1.92;;
50379;SDS011;37474;59.468;18.040;2023-03-24T01:35:07;19.33;;;2.27;;
50379;SDS011;37474;59.468;18.040;2023-03-24T01:40:07;19.37;;;2.80;;
50379;SDS011;37474;59.468;18.040;2023-03-24T01:42:37;16.73;;;2.67;;
50379;SDS011;37474;59.468;18.040;2023-03-24T01:48:11;16.10;;;2.53;;
50379;SDS011;37474;59.468;18.040;2023-03-24T01:50:45;17.80;;;2.37;;
50379;SDS011;37474;59.468;18.040;2023-03-24T01:53:19;13.63;;;1.63;;
50379;SDS011;37474;59.468;18.040;2023-03-24T01:55:49;21.20;;;3.33;;
50379;SDS011;37474;59.468;18.040;2023-03-24T01:58:18;18.23;;;2.47;;
50379;SDS011;37474;59.468;18.040;2023-03-24T02:00:48;10.13;;;2.10;;
50379;SDS011;37474;59.468;18.040;2023-03-24T02:03:20;17.83;;;2.60;;
50379;SDS011;37474;59.468;18.040;2023-03-24T02:05:53;16.83;;;2.30;;
50379;SDS011;37474;59.468;18.040;2023-03-24T02:08:25;17.73;;;2.60;;
50379;SDS011;37474;59.468;18.040;2023-03-24T02:10:58;16.67;;;2.80;;
50379;SDS011;37474;59.468;18.040;2023-03-24T02:16:01;15.52;;;2.15;;
50379;SDS011;37474;59.468;18.040;2023-03-24T02:18:45;15.03;;;2.63;;
50379;SDS011;37474;59.468;18.040;2023-03-24T02:21:47;23.87;;;3.03;;
50379;SDS011;37474;59.468;18.040;2023-03-24T02:27:43;18.60;;;2.80;;
50379;SDS011;37474;59.468;18.040;2023-03-24T02:30:37;12.47;;;2.50;;
50379;SDS011;37474;59.468;18.040;2023-03-24T02:33:42;18.63;;;3.10;;
50379;SDS011;37474;59.468;18.040;2023-03-24T02:39:53;22.43;;;3.33;;
50379;SDS011;37474;59.468;18.040;2023-03-24T02:42:32;20.67;;;3.37;;
50379;SDS011;37474;59.468;18.040;2023-03-24T02:45:11;23.33;;;3.03;;
50379;SDS011;37474;59.468;18.040;2023-03-24T02:47:55;17.47;;;2.93;;
50379;SDS011;37474;59.468;18.040;2023-03-24T02:50:38;22.07;;;3.03;;
50379;SDS011;37474;59.468;18.040;2023-03-24T02:53:13;18.57;;;2.97;;
50379;SDS011;37474;59.468;18.040;2023-03-24T02:55:49;20.43;;;3.27;;
50379;SDS011;37474;59.468;18.040;2023-03-24T02:58:26;14.02;;;2.50;;
50379;SDS011;37474;59.468;18.040;2023-03-24T03:01:04;19.77;;;2.73;;
50379;SDS011;37474;59.468;18.040;2023-03-24T03:03:37;20.10;;;2.53;;
50379;SDS011;37474;59.468;18.040;2023-03-24T03:06:11;15.90;;;2.73;;
50379;SDS011;37474;59.468;18.040;2023-03-24T03:08:45;20.70;;;2.87;;
50379;SDS011;37474;59.468;18.040;2023-03-24T03:11:17;16.50;;;2.47;;
50379;SDS011;37474;59.468;18.040;2023-03-24T03:13:47;20.93;;;2.90;;
50379;SDS011;37474;59.468;18.040;2023-03-24T03:16:21;23.90;;;2.93;;
50379;SDS011;37474;59.468;18.040;2023-03-24T03:19:00;19.50;;;3.03;;
50379;SDS011;37474;59.468;18.040;2023-03-24T03:21:37;21.37;;;3.00;;
50379;SDS011;37474;59.468;18.040;2023-03-24T03:24:10;17.10;;;2.90;;
50379;SDS011;37474;59.468;18.040;2023-03-24T03:26:46;22.80;;;3.10;;
50379;SDS011;37474;59.468;18.040;2023-03-24T03:29:16;16.97;;;3.20;;
50379;SDS011;37474;59.468;18.040;2023-03-24T03:31:50;22.83;;;2.67;;
50379;SDS011;37474;59.468;18.040;2023-03-24T03:34:26;20.67;;;3.23;;
50379;SDS011;37474;59.468;18.040;2023-03-24T03:37:02;16.40;;;2.57;;
50379;SDS011;37474;59.468;18.040;2023-03-24T03:39:35;17.63;;;3.13;;
50379;SDS011;37474;59.468;18.040;2023-03-24T03:42:12;19.17;;;3.07;;
50379;SDS011;37474;59.468;18.040;2023-03-24T03:44:40;17.47;;;2.43;;
50379;SDS011;37474;59.468;18.040;2023-03-24T03:47:08;22.13;;;2.60;;
50379;SDS011;37474;59.468;18.040;2023-03-24T03:49:38;16.85;;;2.80;;
50379;SDS011;37474;59.468;18.040;2023-03-24T03:52:06;19.10;;;2.63;;
50379;SDS011;37474;59.468;18.040;2023-03-24T03:54:34;19.20;;;2.70;;
50379;SDS011;37474;59.468;18.040;2023-03-24T03:57:09;16.17;;;2.40;;
50379;SDS011;37474;59.468;18.040;2023-03-24T03:59:41;24.23;;;3.30;;
50379;SDS011;37474;59.468;18.040;2023-03-24T04:02:14;19.85;;;3.17;;
50379;SDS011;37474;59.468;18.040;2023-03-24T04:05:00;23.10;;;2.80;;
50379;SDS011;37474;59.468;18.040;2023-03-24T04:10:46;17.00;;;2.60;;
50379;SDS011;37474;59.468;18.040;2023-03-24T04:13:41;12.90;;;2.67;;
50379;SDS011;37474;59.468;18.040;2023-03-24T04:16:20;25.37;;;3.27;;
50379;SDS011;37474;59.468;18.040;2023-03-24T04:19:06;17.23;;;2.53;;
50379;SDS011;37474;59.468;18.040;2023-03-24T04:21:44;24.97;;;2.90;;
50379;SDS011;37474;59.468;18.040;2023-03-24T04:24:26;15.67;;;2.83;;
50379;SDS011;37474;59.468;18.040;2023-03-24T04:27:04;15.03;;;2.60;;
50379;SDS011;37474;59.468;18.040;2023-03-24T04:29:43;18.60;;;3.20;;
50379;SDS011;37474;59.468;18.040;2023-03-24T04:32:19;14.65;;;2.08;;
50379;SDS011;37474;59.468;18.040;2023-03-24T04:34:57;15.10;;;2.30;;
50379;SDS011;37474;59.468;18.040;2023-03-24T04:37:29;20.23;;;2.77;;
50379;SDS011;37474;59.468;18.040;2023-03-24T04:40:07;13.57;;;2.40;;
50379;SDS011;37474;59.468;18.040;2023-03-24T04:42:38;16.63;;;2.90;;
50379;SDS011;37474;59.468;18.040;2023-03-24T04:45:13;14.03;;;2.70;;
50379;SDS011;37474;59.468;18.040;2023-03-24T04:47:44;18.07;;;2.40;;
50379;SDS011;37474;59.468;18.040;2023-03-24T04:50:25;14.53;;;2.60;;
50379;SDS011;37474;59.468;18.040;2023-03-24T04:52:56;19.07;;;2.67;;
50379;SDS011;37474;59.468;18.040;2023-03-24T04:55:28;13.03;;;2.40;;
50379;SDS011;37474;59.468;18.040;2023-03-24T04:58:10;17.20;;;3.43;;
50379;SDS011;37474;59.468;18.040;2023-03-24T05:00:43;15.88;;;2.85;;
50379;SDS011;37474;59.468;18.040;2023-03-24T05:03:11;18.53;;;2.30;;
50379;SDS011;37474;59.468;18.040;2023-03-24T05:05:45;14.23;;;2.43;;
50379;SDS011;37474;59.468;18.040;2023-03-24T05:08:15;14.17;;;2.63;;
50379;SDS011;37474;59.468;18.040;2023-03-24T05:10:48;20.67;;;2.90;;
50379;SDS011;37474;59.468;18.040;2023-03-24T05:13:15;11.98;;;2.30;;
50379;SDS011;37474;59.468;18.040;2023-03-24T05:15:46;19.90;;;2.73;;
50379;SDS011;37474;59.468;18.040;2023-03-24T05:18:16;13.30;;;2.33;;
50379;SDS011;37474;59.468;18.040;2023-03-24T05:20:44;12.63;;;2.13;;
50379;SDS011;37474;59.468;18.040;2023-03-24T05:23:13;16.50;;;2.47;;
50379;SDS011;37474;59.468;18.040;2023-03-24T05:25:44;19.20;;;2.93;;
50379;SDS011;37474;59.468;18.040;2023-03-24T05:28:12;15.37;;;2.87;;
50379;SDS011;37474;59.468;18.040;2023-03-24T05:30:43;15.73;;;2.30;;
50379;SDS011;37474;59.468;18.040;2023-03-24T05:33:16;14.57;;;2.83;;
50379;SDS011;37474;59.468;18.040;2023-03-24T05:35:44;15.10;;;2.40;;
50379;SDS011;37474;59.468;18.040;2023-03-24T05:38:14;18.63;;;2.90;;
50379;SDS011;37474;59.468;18.040;2023-03-24T05:40:44;16.10;;;2.42;;
50379;SDS011;37474;59.468;18.040;2023-03-24T05:43:11;17.83;;;2.70;;
50379;SDS011;37474;59.468;18.040;2023-03-24T05:46:00;15.47;;;2.43;;
50379;SDS011;37474;59.468;18.040;2023-03-24T05:48:29;14.17;;;2.60;;
50379;SDS011;37474;59.468;18.040;2023-03-24T05:50:57;15.53;;;2.27;;
50379;SDS011;37474;59.468;18.040;2023-03-24T05:53:27;14.30;;;2.17;;
50379;SDS011;37474;59.468;18.040;2023-03-24T05:55:56;19.43;;;2.80;;
50379;SDS011;37474;59.468;18.040;2023-03-24T05:58:24;11.47;;;2.13;;
50379;SDS011;37474;59.468;18.040;2023-03-24T06:00:54;12.17;;;2.40;;
50379;SDS011;37474;59.468;18.040;2023-03-24T06:03:25;14.37;;;2.37;;
50379;SDS011;37474;59.468;18.040;2023-03-24T06:06:02;12.30;;;2.40;;
50379;SDS011;37474;59.468;18.040;2023-03-24T06:08:32;13.90;;;2.50;;
50379;SDS011;37474;59.468;18.040;2023-03-24T06:11:00;13.27;;;2.50;;
50379;SDS011;37474;59.468;18.040;2023-03-24T06:13:30;14.47;;;1.97;;
50379;SDS011;37474;59.468;18.040;2023-03-24T06:16:02;14.30;;;2.87;;
50379;SDS011;37474;59.468;18.040;2023-03-24T06:18:31;17.13;;;2.50;;
50379;SDS011;37474;59.468;18.040;2023-03-24T06:20:59;15.07;;;2.53;;
50379;SDS011;37474;59.468;18.040;2023-03-24T06:23:32;14.00;;;2.73;;
50379;SDS011;37474;59.468;18.040;2023-03-24T06:26:00;14.03;;;2.60;;
50379;SDS011;37474;59.468;18.040;2023-03-24T06:28:28;13.53;;;2.17;;
50379;SDS011;37474;59.468;18.040;2023-03-24T06:31:03;13.80;;;2.60;;
50379;SDS011;37474;59.468;18.040;2023-03-24T06:33:32;11.70;;;2.30;;
50379;SDS011;37474;59.468;18.040;2023-03-24T06:36:00;14.80;;;2.30;;
50379;SDS011;37474;59.468;18.040;2023-03-24T06:38:30;13.83;;;2.57;;
50379;SDS011;37474;59.468;18.040;2023-03-24T06:40:59;15.75;;;2.47;;
50379;SDS011;37474;59.468;18.040;2023-03-24T06:43:27;19.43;;;2.80;;
50379;SDS011;37474;59.468;18.040;2023-03-24T06:45:59;15.50;;;3.17;;
50379;SDS011;37474;59.468;18.040;2023-03-24T06:48:27;16.73;;;2.60;;
50379;SDS011;37474;59.468;18.040;2023-03-24T06:50:56;13.73;;;2.80;;
50379;SDS011;37474;59.468;18.040;2023-03-24T06:53:26;16.30;;;2.67;;
50379;SDS011;37474;59.468;18.040;2023-03-24T06:55:54;13.75;;;2.35;;
50379;SDS011;37474;59.468;18.040;2023-03-24T06:58:22;12.30;;;2.17;;
50379;SDS011;37474;59.468;18.040;2023-03-24T07:00:51;14.57;;;2.25;;
50379;SDS011;37474;59.468;18.040;2023-03-24T07:03:20;14.57;;;2.10;;
50379;SDS011;37474;59.468;18.040;2023-03-24T07:05:50;17.25;;;2.50;;
50379;SDS011;37474;59.468;18.040;2023-03-24T07:08:23;17.27;;;2.33;;
50379;SDS011;37474;59.468;18.040;2023-03-24T07:11:03;19.23;;;2.90;;
50379;SDS011;37474;59.468;18.040;2023-03-24T07:13:36;15.50;;;2.57;;
50379;SDS011;37474;59.468;18.040;2023-03-24T07:16:07;19.40;;;2.80;;
50379;SDS011;37474;59.468;18.040;2023-03-24T07:18:35;21.40;;;2.97;;
50379;SDS011;37474;59.468;18.040;2023-03-24T07:21:04;11.05;;;2.53;;
50379;SDS011;37474;59.468;18.040;2023-03-24T07:23:35;21.90;;;3.10;;
50379;SDS011;37474;59.468;18.040;2023-03-24T07:26:02;15.53;;;2.93;;
50379;SDS011;37474;59.468;18.040;2023-03-24T07:28:34;15.50;;;2.92;;
50379;SDS011;37474;59.468;18.040;2023-03-24T07:31:05;14.07;;;3.20;;
50379;SDS011;37474;59.468;18.040;2023-03-24T07:33:38;14.40;;;2.53;;
50379;SDS011;37474;59.468;18.040;2023-03-24T07:36:06;17.80;;;2.63;;
50379;SDS011;37474;59.468;18.040;2023-03-24T07:38:37;13.95;;;2.65;;
50379;SDS011;37474;59.468;18.040;2023-03-24T07:41:08;20.87;;;2.93;;
50379;SDS011;37474;59.468;18.040;2023-03-24T07:43:36;14.13;;;2.30;;
50379;SDS011;37474;59.468;18.040;2023-03-24T07:46:04;14.23;;;2.90;;
50379;SDS011;37474;59.468;18.040;2023-03-24T07:48:38;15.53;;;2.50;;
50379;SDS011;37474;59.468;18.040;2023-03-24T07:51:06;11.30;;;2.58;;
50379;SDS011;37474;59.468;18.040;2023-03-24T07:53:39;12.87;;;2.87;;
50379;SDS011;37474;59.468;18.040;2023-03-24T07:56:11;12.30;;;2.73;;
50379;SDS011;37474;59.468;18.040;2023-03-24T07:58:38;20.30;;;3.07;;
50379;SDS011;37474;59.468;18.040;2023-03-24T08:01:10;13.82;;;2.70;;
50379;SDS011;37474;59.468;18.040;2023-03-24T08:03:38;13.80;;;2.78;;
50379;SDS011;37474;59.468;18.040;2023-03-24T08:06:10;12.47;;;2.43;;
50379;SDS011;37474;59.468;18.040;2023-03-24T08:09:07;13.00;;;2.50;;
50379;SDS011;37474;59.468;18.040;2023-03-24T08:12:07;9.63;;;2.40;;
50379;SDS011;37474;59.468;18.040;2023-03-24T08:14:45;13.87;;;2.93;;
50379;SDS011;37474;59.468;18.040;2023-03-24T08:17:13;15.33;;;3.00;;
50379;SDS011;37474;59.468;18.040;2023-03-24T08:19:41;15.83;;;3.23;;
50379;SDS011;37474;59.468;18.040;2023-03-24T08:22:26;14.73;;;2.50;;
50379;SDS011;37474;59.468;18.040;2023-03-24T08:24:55;17.23;;;3.10;;
50379;SDS011;37474;59.468;18.040;2023-03-24T08:27:23;14.33;;;2.57;;
50379;SDS011;37474;59.468;18.040;2023-03-24T08:29:53;12.83;;;2.60;;
50379;SDS011;37474;59.468;18.040;2023-03-24T08:32:22;12.87;;;2.83;;
50379;SDS011;37474;59.468;18.040;2023-03-24T08:34:50;16.47;;;3.00;;
50379;SDS011;37474;59.468;18.040;2023-03-24T08:37:19;14.87;;;2.73;;
50379;SDS011;37474;59.468;18.040;2023-03-24T08:39:49;19.57;;;2.93;;
50379;SDS011;37474;59.468;18.040;2023-03-24T08:42:18;16.60;;;2.85;;
50379;SDS011;37474;59.468;18.040;2023-03-24T08:44:49;14.33;;;2.90;;
50379;SDS011;37474;59.468;18.040;2023-03-24T08:47:17;15.88;;;2.58;;
50379;SDS011;37474;59.468;18.040;2023-03-24T08:49:44;14.70;;;2.20;;
50379;SDS011;37474;59.468;18.040;2023-03-24T08:52:15;17.20;;;2.53;;
50379;SDS011;37474;59.468;18.040;2023-03-24T08:57:11;15.40;;;2.53;;
50379;SDS011;37474;59.468;18.040;2023-03-24T08:59:41;17.33;;;2.60;;
50379;SDS011;37474;59.468;18.040;2023-03-24T09:02:13;17.00;;;2.97;;
50379;SDS011;37474;59.468;18.040;2023-03-24T09:04:43;15.68;;;3.03;;
50379;SDS011;37474;59.468;18.040;2023-03-24T09:07:12;11.03;;;2.53;;
50379;SDS011;37474;59.468;18.040;2023-03-24T09:09:41;8.95;;;2.15;;
50379;SDS011;37474;59.468;18.040;2023-03-24T09:12:09;13.40;;;2.63;;
50379;SDS011;37474;59.468;18.040;2023-03-24T09:14:37;9.47;;;1.90;;
50379;SDS011;37474;59.468;18.040;2023-03-24T09:17:06;12.40;;;2.20;;
50379;SDS011;37474;59.468;18.040;2023-03-24T09:19:36;13.73;;;2.73;;
50379;SDS011;37474;59.468;18.040;2023-03-24T09:22:04;15.05;;;2.45;;
50379;SDS011;37474;59.468;18.040;2023-03-24T09:24:34;13.13;;;2.70;;
50379;SDS011;37474;59.468;18.040;2023-03-24T09:27:04;14.80;;;2.73;;
50379;SDS011;37474;59.468;18.040;2023-03-24T09:29:31;10.70;;;2.20;;
50379;SDS011;37474;59.468;18.040;2023-03-24T09:32:01;10.88;;;1.80;;
50379;SDS011;37474;59.468;18.040;2023-03-24T09:34:32;11.37;;;1.90;;
50379;SDS011;37474;59.468;18.040;2023-03-24T09:37:02;8.70;;;1.97;;
50379;SDS011;37474;59.468;18.040;2023-03-24T09:39:30;12.97;;;2.67;;
50379;SDS011;37474;59.468;18.040;2023-03-24T09:42:00;12.97;;;2.80;;
50379;SDS011;37474;59.468;18.040;2023-03-24T09:44:33;9.10;;;2.20;;
50379;SDS011;37474;59.468;18.040;2023-03-24T09:47:08;9.70;;;1.87;;
50379;SDS011;37474;59.468;18.040;2023-03-24T09:49:50;10.13;;;2.20;;
50379;SDS011;37474;59.468;18.040;2023-03-24T09:52:22;10.50;;;2.40;;
50379;SDS011;37474;59.468;18.040;2023-03-24T09:54:56;11.93;;;2.23;;
50379;SDS011;37474;59.468;18.040;2023-03-24T09:57:32;14.97;;;3.33;;
50379;SDS011;37474;59.468;18.040;2023-03-24T10:00:08;13.10;;;2.43;;
50379;SDS011;37474;59.468;18.040;2023-03-24T10:02:44;12.70;;;2.20;;
50379;SDS011;37474;59.468;18.040;2023-03-24T10:05:19;11.40;;;2.07;;
50379;SDS011;37474;59.468;18.040;2023-03-24T10:07:54;11.33;;;2.00;;
50379;SDS011;37474;59.468;18.040;2023-03-24T10:10:28;12.40;;;2.87;;
50379;SDS011;37474;59.468;18.040;2023-03-24T10:13:05;11.50;;;2.40;;
50379;SDS011;37474;59.468;18.040;2023-03-24T10:15:38;15.10;;;2.67;;
50379;SDS011;37474;59.468;18.040;2023-03-24T10:18:18;11.87;;;2.30;;
50379;SDS011;37474;59.468;18.040;2023-03-24T10:20:59;9.73;;;2.40;;
50379;SDS011;37474;59.468;18.040;2023-03-24T10:23:35;11.40;;;2.07;;
50379;SDS011;37474;59.468;18.040;2023-03-24T10:26:15;10.10;;;2.15;;
50379;SDS011;37474;59.468;18.040;2023-03-24T10:28:59;10.83;;;2.27;;
50379;SDS011;37474;59.468;18.040;2023-03-24T10:31:37;19.40;;;2.27;;
50379;SDS011;37474;59.468;18.040;2023-03-24T10:34:08;14.73;;;2.92;;
50379;SDS011;37474;59.468;18.040;2023-03-24T10:36:38;15.38;;;3.15;;
50379;SDS011;37474;59.468;18.040;2023-03-24T10:39:13;15.50;;;2.73;;
50379;SDS011;37474;59.468;18.040;2023-03-24T10:41:47;13.80;;;2.53;;
50379;SDS011;37474;59.468;18.040;2023-03-24T10:44:18;16.17;;;2.97;;
50379;SDS011;37474;59.468;18.040;2023-03-24T10:46:49;14.27;;;2.90;;
50379;SDS011;37474;59.468;18.040;2023-03-24T10:49:24;17.77;;;2.90;;
50379;SDS011;37474;59.468;18.040;2023-03-24T10:51:58;15.30;;;3.05;;
50379;SDS011;37474;59.468;18.040;2023-03-24T10:54:30;14.30;;;3.50;;
50379;SDS011;37474;59.468;18.040;2023-03-24T10:57:02;21.63;;;4.50;;
50379;SDS011;37474;59.468;18.040;2023-03-24T10:59:31;14.23;;;3.00;;
50379;SDS011;37474;59.468;18.040;2023-03-24T11:02:09;16.30;;;2.90;;
50379;SDS011;37474;59.468;18.040;2023-03-24T11:04:44;17.23;;;2.93;;
50379;SDS011;37474;59.468;18.040;2023-03-24T11:07:22;16.57;;;3.40;;
50379;SDS011;37474;59.468;18.040;2023-03-24T11:09:57;18.97;;;3.03;;
50379;SDS011;37474;59.468;18.040;2023-03-24T11:12:29;14.23;;;2.90;;
50379;SDS011;37474;59.468;18.040;2023-03-24T11:15:03;21.87;;;3.43;;
50379;SDS011;37474;59.468;18.040;2023-03-24T11:17:51;19.98;;;3.53;;
50379;SDS011;37474;59.468;18.040;2023-03-24T11:20:24;17.07;;;3.47;;
50379;SDS011;37474;59.468;18.040;2023-03-24T11:22:57;15.63;;;2.90;;
50379;SDS011;37474;59.468;18.040;2023-03-24T11:25:27;23.93;;;3.37;;
50379;SDS011;37474;59.468;18.040;2023-03-24T11:28:13;14.87;;;2.97;;
50379;SDS011;37474;59.468;18.040;2023-03-24T11:30:44;20.40;;;3.37;;
50379;SDS011;37474;59.468;18.040;2023-03-24T11:33:18;20.00;;;3.33;;
50379;SDS011;37474;59.468;18.040;2023-03-24T11:36:02;19.70;;;3.37;;
50379;SDS011;37474;59.468;18.040;2023-03-24T11:38:38;24.43;;;3.70;;
50379;SDS011;37474;59.468;18.040;2023-03-24T11:41:08;18.98;;;3.35;;
50379;SDS011;37474;59.468;18.040;2023-03-24T11:43:45;16.88;;;3.58;;
50379;SDS011;37474;59.468;18.040;2023-03-24T11:46:15;17.30;;;3.00;;
50379;SDS011;37474;59.468;18.040;2023-03-24T11:48:46;15.23;;;3.13;;
50379;SDS011;37474;59.468;18.040;2023-03-24T11:51:22;14.07;;;2.70;;
50379;SDS011;37474;59.468;18.040;2023-03-24T11:53:55;13.27;;;2.73;;
50379;SDS011;37474;59.468;18.040;2023-03-24T11:56:29;15.23;;;3.20;;
50379;SDS011;37474;59.468;18.040;2023-03-24T11:59:05;18.07;;;2.73;;
50379;SDS011;37474;59.468;18.040;2023-03-24T12:01:43;14.97;;;2.90;;
50379;SDS011;37474;59.468;18.040;2023-03-24T12:04:22;16.93;;;3.17;;
50379;SDS011;37474;59.468;18.040;2023-03-24T12:07:03;17.20;;;3.20;;
50379;SDS011;37474;59.468;18.040;2023-03-24T12:09:52;17.53;;;3.23;;
50379;SDS011;37474;59.468;18.040;2023-03-24T12:12:26;13.90;;;3.20;;
50379;SDS011;37474;59.468;18.040;2023-03-24T12:15:08;17.23;;;3.03;;
50379;SDS011;37474;59.468;18.040;2023-03-24T12:20:30;16.40;;;3.47;;
50379;SDS011;37474;59.468;18.040;2023-03-24T12:23:06;16.43;;;3.20;;
50379;SDS011;37474;59.468;18.040;2023-03-24T12:25:47;15.43;;;3.50;;
50379;SDS011;37474;59.468;18.040;2023-03-24T12:28:38;20.93;;;3.53;;
50379;SDS011;37474;59.468;18.040;2023-03-24T12:31:31;17.77;;;3.40;;
50379;SDS011;37474;59.468;18.040;2023-03-24T12:34:15;13.70;;;3.13;;
50379;SDS011;37474;59.468;18.040;2023-03-24T12:37:07;22.70;;;4.80;;
50379;SDS011;37474;59.468;18.040;2023-03-24T12:39:46;28.13;;;3.90;;
50379;SDS011;37474;59.468;18.040;2023-03-24T12:42:26;14.57;;;3.50;;
50379;SDS011;37474;59.468;18.040;2023-03-24T12:45:03;21.20;;;3.63;;
50379;SDS011;37474;59.468;18.040;2023-03-24T12:47:46;26.02;;;4.25;;
50379;SDS011;37474;59.468;18.040;2023-03-24T12:50:29;19.83;;;3.40;;
50379;SDS011;37474;59.468;18.040;2023-03-24T12:53:09;26.10;;;3.83;;
50379;SDS011;37474;59.468;18.040;2023-03-24T12:55:51;17.10;;;3.10;;
50379;SDS011;37474;59.468;18.040;2023-03-24T12:58:27;23.80;;;4.77;;
50379;SDS011;37474;59.468;18.040;2023-03-24T13:01:08;25.60;;;4.03;;
50379;SDS011;37474;59.468;18.040;2023-03-24T13:03:45;23.73;;;4.13;;
50379;SDS011;37474;59.468;18.040;2023-03-24T13:06:18;20.47;;;3.97;;
50379;SDS011;37474;59.468;18.040;2023-03-24T13:08:57;24.60;;;4.77;;
50379;SDS011;37474;59.468;18.040;2023-03-24T13:11:37;19.23;;;3.67;;
50379;SDS011;37474;59.468;18.040;2023-03-24T13:14:14;23.00;;;4.70;;
50379;SDS011;37474;59.468;18.040;2023-03-24T13:16:49;21.60;;;4.13;;
50379;SDS011;37474;59.468;18.040;2023-03-24T13:19:24;20.57;;;3.60;;
50379;SDS011;37474;59.468;18.040;2023-03-24T13:21:53;19.17;;;3.70;;
50379;SDS011;37474;59.468;18.040;2023-03-24T13:24:22;16.20;;;3.67;;
50379;SDS011;37474;59.468;18.040;2023-03-24T13:26:54;21.80;;;4.73;;
50379;SDS011;37474;59.468;18.040;2023-03-24T13:29:31;16.43;;;3.40;;
50379;SDS011;37474;59.468;18.040;2023-03-24T13:32:16;22.07;;;4.37;;
50379;SDS011;37474;59.468;18.040;2023-03-24T13:34:54;15.53;;;3.70;;
50379;SDS011;37474;59.468;18.040;2023-03-24T13:37:31;19.87;;;3.37;;
50379;SDS011;37474;59.468;18.040;2023-03-24T13:40:07;20.20;;;3.53;;
50379;SDS011;37474;59.468;18.040;2023-03-24T13:42:41;16.23;;;3.30;;
50379;SDS011;37474;59.468;18.040;2023-03-24T13:45:22;16.33;;;3.97;;
50379;SDS011;37474;59.468;18.040;2023-03-24T13:48:14;15.23;;;3.47;;
50379;SDS011;37474;59.468;18.040;2023-03-24T13:50:51;9.43;;;3.17;;
50379;SDS011;37474;59.468;18.040;2023-03-24T13:53:27;13.97;;;2.83;;
50379;SDS011;37474;59.468;18.040;2023-03-24T13:56:01;13.03;;;2.80;;
50379;SDS011;37474;59.468;18.040;2023-03-24T14:01:40;16.17;;;2.90;;
50379;SDS011;37474;59.468;18.040;2023-03-24T14:04:24;7.10;;;2.67;;
50379;SDS011;37474;59.468;18.040;2023-03-24T14:06:57;5.80;;;2.27;;
50379;SDS011;37474;59.468;18.040;2023-03-24T14:09:26;9.60;;;2.33;;
50379;SDS011;37474;59.468;18.040;2023-03-24T14:12:17;8.52;;;2.33;;
50379;SDS011;37474;59.468;18.040;2023-03-24T14:17:45;7.27;;;2.33;;
50379;SDS011;37474;59.468;18.040;2023-03-24T14:23:19;6.63;;;2.00;;
50379;SDS011;37474;59.468;18.040;2023-03-24T14:25:53;7.37;;;1.80;;
50379;SDS011;37474;59.468;18.040;2023-03-24T14:28:27;8.17;;;2.43;;
50379;SDS011;37474;59.468;18.040;2023-03-24T14:30:59;5.37;;;1.80;;
50379;SDS011;37474;59.468;18.040;2023-03-24T14:33:57;4.37;;;1.63;;
50379;SDS011;37474;59.468;18.040;2023-03-24T14:36:29;4.53;;;1.60;;
50379;SDS011;37474;59.468;18.040;2023-03-24T14:39:05;3.47;;;1.60;;
50379;SDS011;37474;59.468;18.040;2023-03-24T14:41:38;7.43;;;1.77;;
50379;SDS011;37474;59.468;18.040;2023-03-24T14:44:09;4.50;;;1.90;;
50379;SDS011;37474;59.468;18.040;2023-03-24T14:46:38;3.57;;;1.87;;
50379;SDS011;37474;59.468;18.040;2023-03-24T14:49:25;4.68;;;1.45;;
50379;SDS011;37474;59.468;18.040;2023-03-24T14:54:31;1.65;;;1.20;;
50379;SDS011;37474;59.468;18.040;2023-03-24T14:57:03;3.13;;;1.30;;
50379;SDS011;37474;59.468;18.040;2023-03-24T14:59:38;2.58;;;1.17;;
50379;SDS011;37474;59.468;18.040;2023-03-24T15:02:26;2.03;;;1.20;;
50379;SDS011;37474;59.468;18.040;2023-03-24T15:05:15;2.77;;;1.20;;
50379;SDS011;37474;59.468;18.040;2023-03-24T15:07:58;3.00;;;1.07;;
50379;SDS011;37474;59.468;18.040;2023-03-24T15:10:31;4.27;;;1.50;;
50379;SDS011;37474;59.468;18.040;2023-03-24T15:13:03;1.83;;;1.10;;
50379;SDS011;37474;59.468;18.040;2023-03-24T15:15:31;1.37;;;1.00;;
50379;SDS011;37474;59.468;18.040;2023-03-24T15:17:59;1.20;;;0.90;;
50379;SDS011;37474;59.468;18.040;2023-03-24T15:20:32;2.93;;;1.17;;
50379;SDS011;37474;59.468;18.040;2023-03-24T15:23:04;1.27;;;1.00;;
50379;SDS011;37474;59.468;18.040;2023-03-24T15:25:32;1.63;;;1.20;;
50379;SDS011;37474;59.468;18.040;2023-03-24T15:28:01;2.13;;;1.30;;
50379;SDS011;37474;59.468;18.040;2023-03-24T15:30:41;1.92;;;1.35;;
50379;SDS011;37474;59.468;18.040;2023-03-24T15:33:08;1.37;;;1.17;;
50379;SDS011;37474;59.468;18.040;2023-03-24T15:38:16;1.63;;;1.10;;
50379;SDS011;37474;59.468;18.040;2023-03-24T15:40:54;1.80;;;1.37;;